Pillar Energy, Llc

Contact Name:

Contact Phone: (681) 265-9026

Business Address: Pillar Energy, Llc   412 Tennessee Avenue   CHARLESTON , WV . 25301-

Pillar Energy, Llc Activity Summary

Production Status Actively Producing
Producer National Rank by BOE Unranked
Total Producing Wells 0
Most Recent Production Month 12-01-2021
Total Oil Production 162,952 BBls
Total Gas Production 13,911,724 MCFs
Total BOE Production 2,481,347 BBls
Producing Counties County

Powered by: MineralAnswers.com

Wells in West Virginia operated by Pillar Energy, LLC

API Number Operator Name Recent Production Well Name Field Name Well Type Total Oil Produced Total Gas Produced
47-011-00040 Pillar Energy, LLC 12-01-2021 Acre Land Co. 1, MC-10 Gas 118,813 BBLs 63,035 MCFs
47-011-00053 Pillar Energy, LLC 12-01-2021 Acre Land Co. 2, MC-13 Gas 9,329 BBLs 7,995 MCFs
47-011-00057 Pillar Energy, LLC 12-01-2021 Acre Land Co. 3, MC-17 Gas 38,991 BBLs 12,965 MCFs
47-011-00541 Pillar Energy, LLC 12-01-2021 Acre Land Co. 4-MC-46 Gas 264,438 BBLs 207,846 MCFs
47-011-00542 Pillar Energy, LLC 12-01-2021 Acre Land Co. 5, MC-47 Gas 58,900 BBLs 80,672 MCFs
47-011-00548 Pillar Energy, LLC 12-01-2021 Acre Land Co. 6-MC-49 Gas 73,626 BBLs 52,625 MCFs
47-011-00947 Pillar Energy, LLC 12-01-2021 Adams, Paul HR-215 Gas 145,422 BBLs 139,988 MCFs
47-011-00948 Pillar Energy, LLC 12-01-2021 Adams, Paul HR-216 Gas 1,350,465 BBLs 1,351,629 MCFs
47-011-00951 Pillar Energy, LLC 12-01-2021 Adams, Paul HR-217 Gas 690,427 BBLs 618,975 MCFs
47-011-00949 Pillar Energy, LLC 12-01-2021 Adams, Paul HR-218 Gas 499,215 BBLs 480,485 MCFs
47-011-00950 Pillar Energy, LLC 12-01-2021 Adams, Paul HR-219 Gas 364,401 BBLs 332,503 MCFs
47-015-00516 Pillar Energy, LLC 12-01-2021 Adena Corp. 14 Gas 87,240 BBLs 210,639 MCFs
47-015-00222 Pillar Energy, LLC 12-01-2021 Adena Corp. 2 Gas 44,440 BBLs 106,116 MCFs
47-015-00224 Pillar Energy, LLC 12-01-2021 Adena Corp. 3 Gas 52,880 BBLs 133,586 MCFs
47-015-00563 Pillar Energy, LLC 12-01-2021 Adena Corp. RB-1 Gas 31,200 BBLs 90,415 MCFs
47-043-02406 Pillar Energy, LLC 02-01-2019 Adkins, E. L. BR-28 Gas 1,633 BBLs 35,924 MCFs
47-043-00241 Pillar Energy, LLC 01-01-2019 Adkins, Elijah L. 2 Gas 406 BBLs 4,219 MCFs
47-035-02674 Pillar Energy, LLC 12-01-2021 Adkins, Jeffery & Kimberl 033 Gas 209,400 BBLs 186,657 MCFs
47-011-00640 Pillar Energy, LLC 05-01-2021 Akers, David H. P-3 Gas 9,114 BBLs 2,854 MCFs
47-087-04709 Pillar Energy, LLC 12-01-2021 Allen, Clair & Charlotte HR-413 Gas 0 BBLs 187,173 MCFs
47-053-00391 Pillar Energy, LLC 11-01-2021 Amsbary, Gladys E. 1 Oil 53,214 BBLs 43,365 MCFs
47-035-02792 Pillar Energy, LLC 12-01-2021 Anderson, Donald HR-146 Gas 535,000 BBLs 420,777 MCFs
47-039-04958 Pillar Energy, LLC 12-01-2021 Anderson, Don ANDERSON 1 Gas 30,560 BBLs 63,707 MCFs
47-039-04959 Pillar Energy, LLC 12-01-2021 Anderson, Don ANDERSON 2 Gas 171,731 BBLs 222,539 MCFs
47-039-04960 Pillar Energy, LLC 12-01-2021 Anderson, Don ANDERSON 3 Gas 151,400 BBLs 221,979 MCFs
47-035-02999 Pillar Energy, LLC 12-01-2021 Anderson, Dwight & Lori HR-456 Gas 0 BBLs 134,431 MCFs
47-035-02935 Pillar Energy, LLC 12-01-2021 Anderson, Margaret L. HR-111 Gas 369,600 BBLs 295,371 MCFs
47-039-05211 Pillar Energy, LLC 12-01-2021 Appalachian Land Co. 0 Gas 171,640 BBLs 336,673 MCFs
47-039-04953 Pillar Energy, LLC 12-01-2021 Appalachian Land Co. KAS 14 Gas 97,600 BBLs 204,509 MCFs
47-039-05212 Pillar Energy, LLC 12-01-2021 Appalachian Land Co. KAS-19 Gas 171,640 BBLs 336,651 MCFs
47-039-05217 Pillar Energy, LLC 12-01-2021 Appalachian Land Co. KAS 20 Gas 171,640 BBLs 336,652 MCFs
47-039-05218 Pillar Energy, LLC 12-01-2021 Appalachian Land Co. KAS 21 Gas 171,640 BBLs 336,580 MCFs
47-039-05355 Pillar Energy, LLC 12-01-2021 Appalachian Land Co. KAS-22 Gas 157,320 BBLs 205,024 MCFs
47-039-05354 Pillar Energy, LLC 12-01-2021 Appalachian Land Co. KAS-23 Gas 157,320 BBLs 205,890 MCFs
47-039-04758 Pillar Energy, LLC 12-01-2021 Appalachian Land Company KAS11 Gas 634,040 BBLs 1,570,514 MCFs
47-039-05099 Pillar Energy, LLC 12-01-2021 Appalachian Land Company KAS-15 Gas 208,880 BBLs 472,655 MCFs
47-039-04835 Pillar Energy, LLC 12-01-2021 Appalachian Land KAS 12 Gas 980,720 BBLs 1,794,575 MCFs
47-011-00868 Pillar Energy, LLC 05-01-2021 Appalachian Power Co. P-49 Gas 6,075 BBLs 3,454 MCFs
47-039-05002 Pillar Energy, LLC 12-01-2021 Arbogast, W. J. & Mamie ARBOGAST 1 Gas 66,520 BBLs 109,293 MCFs
47-039-05108 Pillar Energy, LLC 12-01-2021 Arbogast, W. J. Mamie ARBOGAST 2 Gas 214,320 BBLs 311,653 MCFs
47-105-01366 Pillar Energy, LLC 12-01-2021 Archer, Olen HR-478A Gas 695 BBLs 318,463 MCFs
47-039-04802 Pillar Energy, LLC 12-01-2021 Ark Land Co. BAILLIE 11 Gas 0 BBLs 174,534 MCFs
47-039-04810 Pillar Energy, LLC 12-01-2021 Ark Land Company BAILLIE 13 Gas 0 BBLs 182,040 MCFs
47-035-02762 Pillar Energy, LLC 12-01-2021 Armstrong, Helen & Peggy 095 Gas 297,853 BBLs 303,320 MCFs
47-011-00398 Pillar Energy, LLC 05-01-2021 Arnold, A. MC-35 Gas 3,190 BBLs 2,569 MCFs
47-011-00946 Pillar Energy, LLC 12-01-2021 Arthur, Billie HR-209 Gas 546,949 BBLs 517,508 MCFs
47-011-00956 Pillar Energy, LLC 12-01-2021 Arthur, Deloris HR 259B Gas 196,073 BBLs 170,903 MCFs
47-001-01114 Pillar Energy, LLC 11-01-2021 Auvil, Ralph 1 Gas 117,520 BBLs 206,478 MCFs
47-001-01242 Pillar Energy, LLC 12-01-2021 Auvil, Ralph 1-A Gas 86,385 BBLs 139,934 MCFs
47-039-02917 Pillar Energy, LLC 12-01-2021 Bailey, B. D. 1-376 Gas 17,760 BBLs 27,684 MCFs

Powered by: MineralAnswers.com

Pillar Energy, Llc Contact Info:

CONTACT NAME

CONTACT TITLE

None Provided

BUSINESS ADDRESS

Pillar Energy, Llc
412 Tennessee Avenue
CHARLESTON , WV . 25301-

BUSINESS PHONE

(681) 265-9026

About Pillar Energy, Llc

Pillar Energy, Llc is currently un-ranked in the state of West Virginia based on a total production of 2,481,347 barrel of oil equivalent (BOE) reported during the month of 12-01-2021. The company has an estimated daily production of 0 BBLs oil and 0 MCF of gas, coming from 0 actively producing wells in the state.

There are 7 permits filed with the state that Pillar Energy, Llc can drill in the future.

Are you the owner or brand manager for Pillar Energy, Llc?


Claim this business